Time;durP1;ratioP1;P1;durP2;ratioP2;P2;SDS_P1;SDS_P2;PMS_P1;PMS_P2;Temp;Humidity;BMP_temperature;BMP_pressure;BME280_temperature;BME280_humidity;BME280_pressure;Samples;Min_cycle;Max_cycle;Signal;HPM_P1;HPM_P2
2021/07/30 00:00:16;;;;;;;7.47;2.43;;;16.30;99.90;;;;;;5029596;28;20298;-78
2021/07/30 00:02:44;;;;;;;6.43;2.37;;;16.30;99.90;;;;;;5048393;28;20300;-78
2021/07/30 00:05:12;;;;;;;5.00;2.50;;;16.20;99.90;;;;;;5049416;28;20244;-79
2021/07/30 00:07:43;;;;;;;6.33;2.70;;;16.20;99.90;;;;;;5067038;28;20326;-77
2021/07/30 00:10:11;;;;;;;8.90;2.80;;;16.20;99.90;;;;;;5069722;28;20242;-77
2021/07/30 00:12:40;;;;;;;8.43;3.00;;;16.10;99.90;;;;;;5068286;28;20314;-78
2021/07/30 00:15:08;;;;;;;7.87;2.60;;;16.10;99.90;;;;;;5067635;28;20242;-78
2021/07/30 00:17:38;;;;;;;6.70;2.50;;;16.10;99.90;;;;;;5084180;28;20314;-78
2021/07/30 00:20:08;;;;;;;5.07;2.23;;;16.20;99.90;;;;;;5066308;28;20235;-80
2021/07/30 00:22:36;;;;;;;9.00;2.43;;;16.20;99.90;;;;;;5067547;28;20597;-78
2021/07/30 00:25:05;;;;;;;5.90;2.43;;;16.20;99.90;;;;;;5069142;28;20331;-78
2021/07/30 00:27:34;;;;;;;10.10;2.80;;;16.10;99.90;;;;;;5050066;28;20771;-78
2021/07/30 00:30:02;;;;;;;5.50;2.30;;;16.10;99.90;;;;;;5046910;28;20425;-77
2021/07/30 00:32:30;;;;;;;5.40;2.30;;;16.10;99.90;;;;;;5047862;28;20239;-77
2021/07/30 00:35:00;;;;;;;9.00;3.07;;;16.00;99.90;;;;;;5049012;28;20235;-78
2021/07/30 00:37:28;;;;;;;8.90;3.03;;;16.00;99.90;;;;;;5066273;28;20241;-77
2021/07/30 00:39:56;;;;;;;9.00;3.00;;;16.00;99.90;;;;;;5068779;28;20265;-79
2021/07/30 00:42:24;;;;;;;5.87;2.60;;;16.00;99.90;;;;;;5068345;28;20326;-78
2021/07/30 00:44:52;;;;;;;8.10;2.80;;;16.00;99.90;;;;;;5067546;28;20243;-79
2021/07/30 00:47:20;;;;;;;5.40;2.40;;;16.00;99.90;;;;;;5068278;28;20241;-79
2021/07/30 00:49:49;;;;;;;9.93;2.90;;;15.90;99.90;;;;;;5067254;28;20308;-78
2021/07/30 00:52:19;;;;;;;7.37;2.80;;;15.90;99.90;;;;;;5067558;28;20325;-79
2021/07/30 00:54:47;;;;;;;4.50;3.00;;;15.90;99.90;;;;;;5062626;28;20243;-79
2021/07/30 00:57:15;;;;;;;8.67;2.97;;;15.90;99.90;;;;;;5048337;28;20318;-80
2021/07/30 00:59:43;;;;;;;7.30;2.47;;;15.90;99.90;;;;;;5048994;28;20259;-78
2021/07/30 01:02:12;;;;;;;8.10;2.70;;;15.80;99.90;;;;;;5058610;28;20239;-78
2021/07/30 01:04:41;;;;;;;7.03;2.90;;;15.90;99.90;;;;;;5026850;28;20428;-79
2021/07/30 01:07:09;;;;;;;8.17;3.30;;;15.80;99.90;;;;;;5043224;28;20240;-79
2021/07/30 01:09:38;;;;;;;8.23;3.20;;;15.80;99.90;;;;;;5048177;28;20251;-80
2021/07/30 01:12:08;;;;;;;9.13;2.83;;;15.80;99.90;;;;;;5047386;28;20236;-79
2021/07/30 01:14:36;;;;;;;6.53;2.90;;;15.70;99.90;;;;;;5046556;28;20235;-77
2021/07/30 01:17:05;;;;;;;8.60;3.07;;;15.70;99.90;;;;;;5047268;28;20231;-78
2021/07/30 01:19:33;;;;;;;6.53;3.13;;;15.70;99.90;;;;;;5047174;28;20297;-78
2021/07/30 01:22:06;;;;;;;8.27;2.90;;;15.70;99.90;;;;;;5061248;28;20254;-78
2021/07/30 01:24:36;;;;;;;7.10;3.00;;;15.60;99.90;;;;;;5048019;28;20244;-78
2021/07/30 01:27:04;;;;;;;5.30;2.77;;;15.60;99.90;;;;;;5046247;28;20242;-78
2021/07/30 01:29:33;;;;;;;9.77;3.03;;;15.60;99.90;;;;;;5034553;28;20736;-78
2021/07/30 01:32:01;;;;;;;7.10;2.77;;;15.60;99.90;;;;;;5055831;28;20750;-79
2021/07/30 01:34:29;;;;;;;5.30;2.90;;;15.60;99.90;;;;;;5066173;28;20278;-78
2021/07/30 01:36:57;;;;;;;7.80;3.47;;;15.60;99.90;;;;;;5057969;28;20255;-77
2021/07/30 01:39:25;;;;;;;6.87;3.27;;;15.60;99.90;;;;;;5047904;28;20236;-78
2021/07/30 01:41:54;;;;;;;6.93;2.80;;;15.50;99.90;;;;;;5047092;28;20583;-77
2021/07/30 01:44:23;;;;;;;8.20;3.40;;;15.50;99.90;;;;;;5047537;28;20235;-79
2021/07/30 01:46:51;;;;;;;7.07;3.10;;;15.50;99.90;;;;;;5060075;28;20313;-80
2021/07/30 01:49:19;;;;;;;8.50;3.50;;;15.50;99.90;;;;;;5066395;28;20235;-78
2021/07/30 01:51:47;;;;;;;9.43;3.00;;;15.50;99.90;;;;;;5054066;28;20314;-78
2021/07/30 01:54:15;;;;;;;7.20;3.07;;;15.50;99.90;;;;;;5048174;28;20762;-77
2021/07/30 01:56:44;;;;;;;6.50;3.23;;;15.40;99.90;;;;;;5047596;28;20255;-78
2021/07/30 01:59:14;;;;;;;9.50;3.37;;;15.40;99.90;;;;;;5046528;28;20704;-79
2021/07/30 02:01:42;;;;;;;7.17;3.17;;;15.40;99.90;;;;;;5053148;28;20847;-79
2021/07/30 02:04:11;;;;;;;7.27;3.10;;;15.40;99.90;;;;;;5047496;28;20239;-79
2021/07/30 02:06:39;;;;;;;9.03;3.40;;;15.40;99.90;;;;;;5046968;28;20290;-78
2021/07/30 02:09:07;;;;;;;9.80;3.10;;;15.40;99.90;;;;;;5047846;28;20242;-78
2021/07/30 02:11:35;;;;;;;8.43;3.17;;;15.40;99.90;;;;;;5044966;28;20243;-78
2021/07/30 02:14:16;;;;;;;7.67;3.60;;;15.30;99.90;;;;;;5062525;28;20595;-77
2021/07/30 02:16:47;;;;;;;7.63;2.90;;;15.40;99.90;;;;;;5047133;28;20305;-79
2021/07/30 02:19:17;;;;;;;6.73;2.73;;;15.30;99.90;;;;;;5047791;28;20627;-80
2021/07/30 02:21:46;;;;;;;7.10;3.33;;;15.30;99.90;;;;;;5053841;28;20292;-79
2021/07/30 02:24:14;;;;;;;6.17;3.17;;;15.30;99.90;;;;;;5047848;28;20312;-77
2021/07/30 02:26:43;;;;;;;9.77;3.20;;;15.30;99.90;;;;;;5050415;28;20299;-78
2021/07/30 02:29:11;;;;;;;9.67;3.87;;;15.30;99.90;;;;;;5027499;28;20236;-78
2021/07/30 02:31:40;;;;;;;8.63;3.47;;;15.30;99.90;;;;;;5033324;28;20244;-79
2021/07/30 02:34:10;;;;;;;7.63;3.70;;;15.20;99.90;;;;;;5050767;28;20282;-78
2021/07/30 02:36:42;;;;;;;8.80;4.10;;;15.20;99.90;;;;;;5038678;28;20692;-77
2021/07/30 02:39:11;;;;;;;7.73;3.50;;;15.20;99.90;;;;;;5030963;28;20323;-77
2021/07/30 02:41:39;;;;;;;7.27;3.63;;;15.20;99.90;;;;;;5041287;28;20235;-79
2021/07/30 02:44:07;;;;;;;7.47;3.40;;;15.20;99.90;;;;;;5039964;28;20250;-77
2021/07/30 02:46:35;;;;;;;8.50;3.60;;;15.20;99.90;;;;;;5030516;28;20248;-77
2021/07/30 02:49:04;;;;;;;7.60;3.67;;;15.10;99.90;;;;;;5030630;28;20239;-78
2021/07/30 02:51:33;;;;;;;6.53;3.47;;;15.10;99.90;;;;;;5030224;28;20712;-79
2021/07/30 02:54:01;;;;;;;11.10;4.03;;;15.10;99.90;;;;;;5030467;28;20595;-78
2021/07/30 02:56:30;;;;;;;6.17;3.17;;;15.10;99.90;;;;;;5030210;28;20237;-77
2021/07/30 02:58:58;;;;;;;10.67;3.70;;;15.20;99.90;;;;;;5030749;28;20275;-77
2021/07/30 03:01:26;;;;;;;9.70;3.80;;;15.10;99.90;;;;;;5039056;28;20309;-78
2021/07/30 03:03:54;;;;;;;7.30;4.10;;;15.10;99.90;;;;;;5050230;28;20594;-80
2021/07/30 03:06:23;;;;;;;6.20;3.63;;;15.10;99.90;;;;;;5028284;28;20266;-78
2021/07/30 03:08:53;;;;;;;7.87;3.73;;;15.10;99.90;;;;;;5029346;28;20237;-79
2021/07/30 03:11:21;;;;;;;7.33;3.97;;;15.10;99.90;;;;;;5028214;28;20236;-78
2021/07/30 03:13:49;;;;;;;10.07;4.03;;;15.10;99.90;;;;;;5029996;28;20307;-78
2021/07/30 03:16:18;;;;;;;8.43;3.93;;;15.00;99.90;;;;;;5029750;28;20835;-78
2021/07/30 03:18:46;;;;;;;8.37;4.10;;;15.00;99.90;;;;;;5030667;28;20232;-78
2021/07/30 03:21:14;;;;;;;7.50;3.73;;;15.00;99.90;;;;;;5041775;28;20235;-78
2021/07/30 03:23:42;;;;;;;7.40;3.90;;;15.00;99.90;;;;;;5050168;28;20590;-78
2021/07/30 03:26:12;;;;;;;7.10;3.60;;;15.00;99.90;;;;;;5049818;28;20245;-79
2021/07/30 03:28:40;;;;;;;6.33;3.77;;;15.00;99.90;;;;;;5049689;28;20239;-77
2021/07/30 03:31:08;;;;;;;6.87;3.97;;;15.00;99.90;;;;;;5065589;28;20235;-78
2021/07/30 03:33:36;;;;;;;7.27;4.33;;;14.90;99.90;;;;;;5065548;28;20325;-78
2021/07/30 03:36:05;;;;;;;8.33;4.70;;;14.90;99.90;;;;;;5037224;28;20243;-78
2021/07/30 03:38:33;;;;;;;10.60;4.50;;;14.80;99.90;;;;;;5050191;28;20261;-80
2021/07/30 03:41:03;;;;;;;8.90;4.50;;;14.90;99.90;;;;;;5048822;28;20232;-80
2021/07/30 03:43:33;;;;;;;8.80;4.20;;;14.90;99.90;;;;;;5049141;28;20659;-79
2021/07/30 03:46:01;;;;;;;6.20;4.10;;;14.90;99.90;;;;;;5048937;28;20478;-78
2021/07/30 03:48:29;;;;;;;7.57;4.43;;;14.90;99.90;;;;;;5050099;28;20239;-79
2021/07/30 03:50:58;;;;;;;9.33;4.40;;;14.90;99.90;;;;;;5049700;28;20243;-78
2021/07/30 03:53:26;;;;;;;7.97;4.40;;;14.80;99.90;;;;;;5046936;28;20244;-78
2021/07/30 03:55:54;;;;;;;8.63;3.90;;;14.80;99.90;;;;;;5048109;28;20239;-78
2021/07/30 03:58:22;;;;;;;12.90;4.63;;;14.80;99.90;;;;;;5049982;28;20877;-78
2021/07/30 04:00:52;;;;;;;13.43;4.90;;;14.90;99.90;;;;;;5049400;28;20297;-78
2021/07/30 04:03:20;;;;;;;9.70;5.17;;;14.80;99.90;;;;;;5049190;28;20238;-78
2021/07/30 04:05:48;;;;;;;8.30;4.57;;;14.80;99.90;;;;;;5051415;28;20238;-79
2021/07/30 04:08:16;;;;;;;11.00;5.20;;;14.80;99.90;;;;;;5056498;28;20703;-79
2021/07/30 04:10:44;;;;;;;7.27;4.37;;;14.80;99.90;;;;;;5052106;28;20257;-78
2021/07/30 04:13:12;;;;;;;10.47;4.67;;;14.80;99.90;;;;;;5067866;28;20253;-79
2021/07/30 04:15:41;;;;;;;10.93;4.40;;;14.80;99.90;;;;;;5064737;28;20235;-78
2021/07/30 04:18:10;;;;;;;15.80;5.17;;;14.90;99.90;;;;;;5063208;28;20330;-78
2021/07/30 04:20:39;;;;;;;10.53;5.00;;;14.90;99.90;;;;;;5047224;28;21136;-79
2021/07/30 04:23:07;;;;;;;8.27;5.57;;;14.90;99.90;;;;;;5046431;28;20254;-79
2021/07/30 04:25:40;;;;;;;8.17;4.83;;;14.90;99.90;;;;;;5048017;28;20591;-77
2021/07/30 04:28:08;;;;;;;10.70;4.93;;;14.90;99.90;;;;;;5047006;28;20246;-78
2021/07/30 04:30:37;;;;;;;9.53;5.33;;;15.00;99.90;;;;;;5047605;28;20243;-77
2021/07/30 04:33:07;;;;;;;8.03;4.67;;;15.00;99.90;;;;;;5047268;28;20243;-78
2021/07/30 04:35:36;;;;;;;7.93;4.90;;;15.00;99.90;;;;;;5047487;28;20236;-78
2021/07/30 04:38:05;;;;;;;9.17;5.10;;;15.00;99.90;;;;;;5047078;28;20286;-79
2021/07/30 04:40:33;;;;;;;10.47;4.93;;;15.10;99.90;;;;;;5047117;28;20259;-79
2021/07/30 04:43:01;;;;;;;11.63;5.87;;;15.10;99.90;;;;;;5047357;28;20243;-78
2021/07/30 04:45:29;;;;;;;7.63;5.00;;;15.10;99.90;;;;;;5048520;28;20306;-79
2021/07/30 04:47:57;;;;;;;9.40;5.60;;;15.10;99.90;;;;;;5067753;28;20288;-78
2021/07/30 04:50:26;;;;;;;13.37;5.50;;;15.10;99.90;;;;;;5067365;28;20265;-78
2021/07/30 04:52:56;;;;;;;9.73;5.03;;;15.20;99.90;;;;;;5066286;28;20702;-78
2021/07/30 04:55:24;;;;;;;12.37;5.80;;;15.20;99.90;;;;;;5067186;28;20301;-79
2021/07/30 04:57:53;;;;;;;13.17;5.93;;;15.20;99.90;;;;;;5065840;28;20235;-79
2021/07/30 05:00:22;;;;;;;13.90;6.10;;;15.20;99.90;;;;;;5067065;28;20251;-79
2021/07/30 05:02:52;;;;;;;15.80;6.57;;;15.20;99.90;;;;;;5066550;28;20230;-78
2021/07/30 05:05:21;;;;;;;11.80;5.53;;;15.30;99.90;;;;;;5056332;28;20311;-78
2021/07/30 05:07:49;;;;;;;11.00;6.50;;;15.30;99.90;;;;;;5046906;28;20236;-77
2021/07/30 05:10:19;;;;;;;11.03;5.87;;;15.40;99.90;;;;;;5047674;28;20262;-78
2021/07/30 05:12:47;;;;;;;9.90;5.53;;;15.40;99.90;;;;;;5046923;28;20232;-79
2021/07/30 05:15:15;;;;;;;9.70;5.47;;;15.50;99.90;;;;;;5046493;28;20235;-78
2021/07/30 05:17:43;;;;;;;9.90;5.90;;;15.50;99.90;;;;;;5046703;28;20619;-77
2021/07/30 05:20:12;;;;;;;7.07;5.13;;;15.60;99.90;;;;;;5047261;28;20317;-77
2021/07/30 05:22:41;;;;;;;10.73;6.07;;;15.70;99.90;;;;;;5065407;28;20238;-79
2021/07/30 05:25:11;;;;;;;12.97;6.00;;;15.80;99.90;;;;;;5066169;28;20274;-78
2021/07/30 05:27:41;;;;;;;13.83;6.80;;;15.80;99.90;;;;;;5066687;28;20652;-78
2021/07/30 05:30:10;;;;;;;11.30;6.30;;;15.90;99.90;;;;;;5066525;28;20314;-79
2021/07/30 05:32:38;;;;;;;12.27;6.40;;;16.00;99.90;;;;;;5046174;28;20639;-82
2021/07/30 05:35:07;;;;;;;12.70;6.03;;;16.10;99.90;;;;;;5044019;28;20751;-79
2021/07/30 05:37:36;;;;;;;12.60;6.67;;;16.20;99.90;;;;;;5078387;28;20230;-79
2021/07/30 05:40:05;;;;;;;11.70;5.57;;;16.40;99.90;;;;;;5035593;28;20263;-76
2021/07/30 05:42:33;;;;;;;15.53;6.77;;;16.60;99.90;;;;;;5041356;28;20737;-79
2021/07/30 05:45:04;;;;;;;10.90;6.40;;;16.80;99.90;;;;;;5045479;28;20727;-78
2021/07/30 05:47:32;;;;;;;10.77;6.10;;;16.80;99.90;;;;;;5061945;28;20235;-81
2021/07/30 05:50:00;;;;;;;13.00;6.20;;;16.80;99.90;;;;;;5063920;28;20247;-78
2021/07/30 05:52:28;;;;;;;11.47;6.03;;;16.80;99.90;;;;;;5064118;28;20293;-81
2021/07/30 05:54:57;;;;;;;9.10;6.33;;;16.90;99.90;;;;;;5063878;28;20242;-82
2021/07/30 05:57:25;;;;;;;14.03;6.10;;;17.10;99.90;;;;;;5064905;28;20235;-81
2021/07/30 05:59:53;;;;;;;11.83;6.37;;;17.30;99.90;;;;;;5063478;28;20338;-81
2021/07/30 06:02:23;;;;;;;9.50;5.57;;;17.40;99.90;;;;;;5060127;28;20288;-81
2021/07/30 06:04:51;;;;;;;14.37;6.20;;;17.60;99.90;;;;;;5043398;28;20687;-81
2021/07/30 06:07:19;;;;;;;9.87;6.13;;;17.70;99.90;;;;;;5043787;28;20240;-81
2021/07/30 06:09:47;;;;;;;11.47;6.30;;;18.00;99.90;;;;;;5043996;28;20228;-81
2021/07/30 06:12:15;;;;;;;11.03;6.43;;;18.20;99.90;;;;;;5059790;28;20695;-81
2021/07/30 06:14:44;;;;;;;13.90;6.30;;;18.10;99.90;;;;;;5065086;28;20758;-81
2021/07/30 06:17:13;;;;;;;11.50;6.67;;;18.20;99.90;;;;;;5048802;28;20228;-80
2021/07/30 06:19:43;;;;;;;10.47;5.93;;;18.30;99.90;;;;;;5044901;28;20313;-81
2021/07/30 06:22:11;;;;;;;11.83;6.20;;;18.60;99.90;;;;;;5059811;28;20763;-81
2021/07/30 06:24:39;;;;;;;12.03;6.43;;;18.70;99.90;;;;;;5064687;28;20305;-81
2021/07/30 06:27:07;;;;;;;10.87;6.23;;;18.80;99.90;;;;;;5061367;28;20240;-79
2021/07/30 06:29:36;;;;;;;14.23;6.53;;;19.00;99.90;;;;;;5042309;28;20262;-82
2021/07/30 06:32:04;;;;;;;11.17;6.23;;;19.00;99.90;;;;;;5058392;28;20237;-82
2021/07/30 06:34:33;;;;;;;12.07;6.20;;;19.10;99.90;;;;;;5064620;28;20240;-81
2021/07/30 06:37:04;;;;;;;11.90;6.70;;;19.20;99.90;;;;;;5064623;28;20236;-81
2021/07/30 06:39:32;;;;;;;13.37;6.50;;;19.30;99.90;;;;;;5065166;28;20559;-80
2021/07/30 06:42:00;;;;;;;10.97;5.77;;;19.30;99.90;;;;;;5065515;28;20843;-81
2021/07/30 06:44:28;;;;;;;12.47;6.40;;;19.40;99.90;;;;;;5046264;28;20240;-81
2021/07/30 06:46:56;;;;;;;13.57;6.23;;;19.60;99.90;;;;;;5037177;28;20235;-82
2021/07/30 06:49:24;;;;;;;12.73;6.20;;;19.80;99.90;;;;;;5044322;28;20240;-83
2021/07/30 06:51:53;;;;;;;11.77;6.23;;;19.70;99.90;;;;;;5043473;28;20262;-81
2021/07/30 06:54:33;;;;;;;19.93;6.43;;;19.90;99.90;;;;;;5049957;28;20240;-80
2021/07/30 06:57:01;;;;;;;8.07;5.67;;;20.20;99.90;;;;;;5048693;28;20253;-82
2021/07/30 06:59:29;;;;;;;10.27;6.00;;;20.40;99.90;;;;;;5040522;28;20557;-81
2021/07/30 07:01:58;;;;;;;13.70;5.87;;;20.50;99.90;;;;;;5057547;28;20911;-80
2021/07/30 07:04:27;;;;;;;9.00;6.00;;;20.60;99.90;;;;;;5044313;28;20543;-81
2021/07/30 07:06:55;;;;;;;14.03;6.37;;;20.70;99.90;;;;;;5042829;28;20262;-82
2021/07/30 07:09:24;;;;;;;11.53;5.93;;;20.70;99.90;;;;;;5044006;28;20718;-81
2021/07/30 07:11:54;;;;;;;14.80;6.40;;;20.80;99.90;;;;;;5055693;28;20333;-81
2021/07/30 07:14:22;;;;;;;12.17;6.20;;;20.90;99.90;;;;;;5064503;28;20621;-81
2021/07/30 07:16:50;;;;;;;9.17;5.77;;;20.90;99.90;;;;;;5061137;28;20243;-82
2021/07/30 07:19:18;;;;;;;13.27;6.70;;;20.90;99.90;;;;;;5048716;28;20295;-82
2021/07/30 07:21:46;;;;;;;11.40;6.40;;;20.90;99.90;;;;;;5057195;28;20322;-81
2021/07/30 07:24:14;;;;;;;12.67;6.17;;;21.10;99.90;;;;;;5066662;28;20266;-81
2021/07/30 07:26:43;;;;;;;14.13;6.63;;;21.20;99.90;;;;;;5065989;28;20238;-81
2021/07/30 07:29:12;;;;;;;11.90;6.87;;;21.40;99.90;;;;;;5046423;28;20780;-80
2021/07/30 07:31:42;;;;;;;12.50;5.93;;;21.30;99.90;;;;;;5037961;28;20288;-81
2021/07/30 07:34:10;;;;;;;13.70;6.27;;;21.40;99.90;;;;;;5032869;28;20326;-80
2021/07/30 07:36:38;;;;;;;11.87;6.00;;;21.60;99.90;;;;;;5034327;28;20620;-81
2021/07/30 07:39:06;;;;;;;11.90;6.23;;;21.80;99.90;;;;;;5027479;28;20236;-80
2021/07/30 07:41:35;;;;;;;16.00;6.37;;;21.90;99.90;;;;;;5026052;28;20238;-80
2021/07/30 07:44:03;;;;;;;12.97;6.20;;;22.10;99.90;;;;;;5024631;28;20259;-80
2021/07/30 07:46:33;;;;;;;12.20;5.70;;;22.30;99.90;;;;;;5029304;28;20625;-81
2021/07/30 07:49:01;;;;;;;13.47;5.60;;;22.40;99.90;;;;;;5009642;28;20266;-81
2021/07/30 07:51:29;;;;;;;11.90;6.30;;;22.70;99.90;;;;;;5026817;28;20341;-80
2021/07/30 07:53:57;;;;;;;12.80;5.97;;;23.00;99.90;;;;;;5025576;28;20971;-81
2021/07/30 07:56:25;;;;;;;10.73;5.43;;;23.30;99.90;;;;;;5011060;28;20331;-82
2021/07/30 07:58:54;;;;;;;12.13;5.50;;;23.30;99.90;;;;;;5028213;28;20224;-81
2021/07/30 08:01:22;;;;;;;9.63;5.60;;;23.60;99.90;;;;;;5018993;28;20243;-83
2021/07/30 08:03:52;;;;;;;8.93;5.10;;;23.70;99.90;;;;;;5037284;28;20237;-84
2021/07/30 08:06:21;;;;;;;9.10;5.00;;;23.80;99.90;;;;;;5030020;28;20306;-82
2021/07/30 08:08:50;;;;;;;13.50;5.60;;;24.00;99.90;;;;;;5024598;28;20240;-83
2021/07/30 08:11:18;;;;;;;12.37;5.50;;;24.10;99.90;;;;;;5024454;28;20819;-82
2021/07/30 08:13:46;;;;;;;17.50;5.63;;;23.80;99.90;;;;;;5031031;28;20251;-85
2021/07/30 08:16:15;;;;;;;12.23;5.60;;;23.80;99.90;;;;;;5039839;28;20322;-85
2021/07/30 08:18:55;;;;;;;11.50;5.35;;;24.00;99.90;;;;;;4252555;28;10001466;-83
2021/07/30 08:21:26;;;;;;;7.13;4.90;;;24.10;99.90;;;;;;2078212;28;10002012;-84
2021/07/30 08:23:54;;;;;;;9.03;4.83;;;24.20;99.90;;;;;;5028323;28;20808;-83
2021/07/30 08:26:22;;;;;;;9.80;4.87;;;24.20;99.90;;;;;;5010528;28;20240;-83
2021/07/30 08:28:51;;;;;;;12.90;5.10;;;24.30;99.90;;;;;;5028550;28;20240;-84
2021/07/30 08:31:23;;;;;;;10.30;5.30;;;24.30;99.90;;;;;;5054621;28;20247;-82
2021/07/30 08:33:52;;;;;;;8.53;4.70;;;24.20;99.90;;;;;;5068309;28;20263;-86
2021/07/30 08:36:22;;;;;;;10.10;4.53;;;24.30;99.90;;;;;;5068687;28;20710;-85
2021/07/30 08:38:50;;;;;;;8.23;4.93;;;24.50;99.90;;;;;;5069030;28;20763;-79
2021/07/30 08:41:21;;;;;;;12.73;5.17;;;24.70;99.90;;;;;;5060513;28;20236;-82
2021/07/30 08:43:53;;;;;;;7.07;4.70;;;24.80;99.90;;;;;;5048984;28;20240;-83
2021/07/30 08:46:24;;;;;;;10.07;4.77;;;25.00;99.90;;;;;;5061640;28;20231;-82
2021/07/30 08:48:54;;;;;;;8.87;4.30;;;25.00;99.90;;;;;;5027362;28;20685;-80
2021/07/30 08:51:27;;;;;;;8.70;4.63;;;25.20;99.90;;;;;;5044007;28;20242;-82
2021/07/30 08:53:55;;;;;;;9.03;4.83;;;25.60;99.90;;;;;;5062182;28;20795;-79
2021/07/30 08:56:23;;;;;;;9.10;4.90;;;25.90;99.90;;;;;;5043189;28;20458;-80
2021/07/30 08:58:51;;;;;;;8.73;4.20;;;25.50;99.90;;;;;;5047981;28;20283;-80
2021/07/30 09:01:19;;;;;;;7.30;4.03;;;25.20;99.90;;;;;;5041699;28;20546;-81
2021/07/30 09:03:48;;;;;;;6.97;4.20;;;25.20;99.90;;;;;;5047120;28;20578;-82
2021/07/30 09:06:21;;;;;;;9.93;4.67;;;25.50;99.90;;;;;;5053357;28;20236;-83
2021/07/30 09:09:06;;;;;;;7.83;4.00;;;25.60;99.90;;;;;;5036151;28;20283;-82
2021/07/30 09:11:36;;;;;;;7.07;4.43;;;25.80;99.90;;;;;;5036667;28;20654;-80
2021/07/30 09:14:05;;;;;;;6.73;3.40;;;25.30;99.90;;;;;;5033659;28;20240;-82
2021/07/30 09:16:47;;;;;;;9.33;4.10;;;25.30;99.90;;;;;;5044928;28;20331;-80
2021/07/30 09:19:16;;;;;;;5.77;3.33;;;25.40;99.90;;;;;;5047453;28;20239;-81
2021/07/30 09:21:44;;;;;;;7.80;3.97;;;25.80;99.90;;;;;;5035484;28;20245;-83
2021/07/30 09:24:16;;;;;;;8.43;3.70;;;26.20;99.90;;;;;;5026042;28;20288;-80
2021/07/30 09:26:47;;;;;;;6.90;3.60;;;26.20;99.90;;;;;;5046104;28;20648;-81
2021/07/30 09:29:16;;;;;;;7.60;3.70;;;26.00;99.90;;;;;;5063887;28;20707;-81
2021/07/30 09:31:47;;;;;;;5.23;3.43;;;26.50;99.90;;;;;;5065310;28;20291;-82
2021/07/30 09:34:22;;;;;;;6.97;3.77;;;26.40;99.90;;;;;;5066046;28;20629;-80
2021/07/30 09:36:53;;;;;;;11.50;3.47;;;26.50;99.90;;;;;;5039284;28;20240;-82
2021/07/30 09:39:24;;;;;;;8.50;3.40;;;26.60;99.90;;;;;;5023420;28;20327;-81
2021/07/30 09:42:04;;;;;;;7.10;3.33;;;26.90;99.90;;;;;;5040266;28;20467;-80
2021/07/30 09:44:33;;;;;;;6.67;2.87;;;26.60;99.90;;;;;;5047480;28;20264;-79
2021/07/30 09:47:12;;;;;;;7.23;3.00;;;26.40;99.90;;;;;;5047457;28;20234;-80
2021/07/30 09:49:50;;;;;;;6.07;3.67;;;26.30;99.90;;;;;;5044314;28;20241;-80
2021/07/30 09:52:20;;;;;;;5.47;3.30;;;26.20;99.90;;;;;;5063667;28;20248;-81
2021/07/30 09:54:55;;;;;;;5.87;3.13;;;25.90;99.90;;;;;;5067820;28;20642;-81
2021/07/30 09:57:24;;;;;;;5.03;2.90;;;25.80;99.90;;;;;;5067250;28;20247;-80
2021/07/30 09:59:54;;;;;;;6.17;3.43;;;25.90;99.90;;;;;;5067719;28;20695;-80
2021/07/30 10:02:22;;;;;;;5.17;2.87;;;26.30;99.90;;;;;;5066780;28;20233;-80
2021/07/30 10:04:52;;;;;;;6.40;3.30;;;27.00;99.90;;;;;;5067402;28;20233;-80
2021/07/30 10:07:22;;;;;;;5.30;3.10;;;27.00;99.90;;;;;;5067960;28;20592;-81
2021/07/30 10:10:00;;;;;;;6.17;3.43;;;27.20;99.90;;;;;;5067680;28;20320;-80
2021/07/30 10:12:30;;;;;;;5.93;3.73;;;27.40;99.90;;;;;;5046423;28;20243;-80
2021/07/30 10:15:00;;;;;;;8.47;3.50;;;27.20;99.90;;;;;;5027739;28;20247;-80
2021/07/30 10:17:30;;;;;;;5.80;3.03;;;27.40;99.90;;;;;;5045046;28;20324;-81
2021/07/30 10:20:01;;;;;;;8.70;3.37;;;27.60;99.90;;;;;;5047439;28;20238;-82
2021/07/30 10:22:45;;;;;;;6.07;3.13;;;27.60;99.70;;;;;;5052504;28;20337;-81
2021/07/30 10:25:22;;;;;;;5.90;3.10;;;27.40;99.70;;;;;;5046794;28;20226;-80
2021/07/30 10:27:55;;;;;;;6.57;3.10;;;27.40;99.90;;;;;;5027589;28;20268;-82
2021/07/30 10:30:23;;;;;;;7.30;3.07;;;27.60;99.90;;;;;;5030285;28;20252;-80
2021/07/30 10:32:53;;;;;;;4.93;2.80;;;27.60;99.90;;;;;;5046861;28;20310;-81
2021/07/30 10:35:41;;;;;;;5.90;3.00;;;27.80;99.90;;;;;;5047660;28;20243;-81
2021/07/30 10:38:20;;;;;;;6.87;2.97;;;27.70;99.90;;;;;;5082889;28;20230;-81
2021/07/30 10:41:19;;;;;;;6.60;2.87;;;28.10;99.90;;;;;;5062883;28;20234;-81
2021/07/30 10:44:08;;;;;;;6.57;3.00;;;28.40;99.30;;;;;;5046269;28;20646;-81
2021/07/30 10:46:37;;;;;;;5.93;2.40;;;28.10;98.70;;;;;;5046715;28;20240;-80
2021/07/30 10:49:39;;;;;;;5.73;2.60;;;27.80;99.40;;;;;;5045797;28;20265;-81
2021/07/30 10:52:28;;;;;;;5.73;2.53;;;27.80;99.10;;;;;;5049640;28;20255;-82
2021/07/30 10:54:57;;;;;;;6.33;2.90;;;27.00;99.70;;;;;;5050704;28;20718;-81
2021/07/30 10:57:50;;;;;;;6.20;3.03;;;26.50;99.90;;;;;;5050602;28;20239;-81
2021/07/30 11:00:19;;;;;;;4.93;2.53;;;26.10;99.90;;;;;;5051296;28;20239;-81
2021/07/30 11:03:07;;;;;;;4.67;2.80;;;26.30;99.90;;;;;;5028382;28;20318;-82
2021/07/30 11:06:11;;;;;;;6.13;2.83;;;26.60;99.90;;;;;;5047795;28;20605;-81
2021/07/30 11:09:12;;;;;;;7.60;3.00;;;26.80;99.90;;;;;;5050594;28;20338;-82
2021/07/30 11:11:41;;;;;;;5.80;2.67;;;27.10;99.90;;;;;;5060410;28;20299;-81
2021/07/30 11:14:15;;;;;;;5.43;2.57;;;27.40;99.90;;;;;;5069290;28;20253;-81
2021/07/30 11:16:45;;;;;;;6.23;2.93;;;27.60;99.60;;;;;;5057374;28;20241;-82
2021/07/30 11:19:15;;;;;;;6.30;3.00;;;27.70;99.40;;;;;;5049577;28;20263;-82
2021/07/30 11:21:44;;;;;;;9.27;3.40;;;27.80;98.90;;;;;;5062778;28;20257;-82
2021/07/30 11:24:13;;;;;;;4.33;3.00;;;27.50;97.90;;;;;;5068818;28;20281;-80
2021/07/30 11:26:42;;;;;;;4.20;2.60;;;27.60;98.30;;;;;;5057622;28;20695;-81
2021/07/30 11:29:30;;;;;;;5.70;2.70;;;27.60;98.40;;;;;;5047110;28;20672;-81
2021/07/30 11:31:59;;;;;;;5.67;2.67;;;27.90;98.00;;;;;;5060178;28;20238;-83
2021/07/30 11:34:29;;;;;;;4.97;2.40;;;28.30;97.90;;;;;;5047962;28;20248;-80
2021/07/30 11:36:58;;;;;;;6.30;2.50;;;28.80;96.30;;;;;;5060847;28;20233;-81
2021/07/30 11:39:35;;;;;;;4.57;2.30;;;28.60;95.90;;;;;;5067676;28;20252;-82
2021/07/30 11:42:04;;;;;;;3.70;2.20;;;28.70;96.20;;;;;;5052912;28;20760;-81
2021/07/30 11:44:44;;;;;;;6.40;2.57;;;29.20;96.60;;;;;;5045697;28;20511;-82
2021/07/30 11:47:12;;;;;;;3.73;2.03;;;29.10;95.90;;;;;;5046544;28;20239;-81
2021/07/30 11:49:42;;;;;;;4.17;2.50;;;29.20;95.70;;;;;;5027965;28;20650;-80
2021/07/30 11:52:18;;;;;;;4.97;2.30;;;29.00;95.70;;;;;;5043280;28;20284;-81
2021/07/30 11:54:47;;;;;;;3.80;2.57;;;29.10;96.50;;;;;;5048003;28;20243;-82
2021/07/30 11:57:26;;;;;;;6.23;2.47;;;29.50;95.30;;;;;;5047924;28;20342;-82
2021/07/30 11:59:57;;;;;;;4.40;2.37;;;29.50;95.50;;;;;;5048730;28;20310;-83
2021/07/30 12:02:27;;;;;;;6.10;2.57;;;29.40;95.40;;;;;;5047498;28;20571;-81
2021/07/30 12:04:56;;;;;;;5.70;3.13;;;29.20;95.40;;;;;;5048625;28;20260;-82
2021/07/30 12:07:27;;;;;;;5.63;2.80;;;28.60;95.80;;;;;;5065081;28;20241;-81
2021/07/30 12:09:58;;;;;;;8.37;2.90;;;28.30;95.90;;;;;;5068816;28;20652;-82
2021/07/30 12:12:29;;;;;;;6.60;2.83;;;27.90;96.50;;;;;;5066407;28;20312;-81
2021/07/30 12:15:00;;;;;;;4.53;2.50;;;27.30;96.10;;;;;;5068793;28;20687;-82
2021/07/30 12:17:30;;;;;;;5.10;2.47;;;27.10;96.60;;;;;;5067976;28;20238;-82
2021/07/30 12:20:01;;;;;;;6.50;2.90;;;27.20;96.60;;;;;;5066919;28;20594;-82
2021/07/30 12:22:37;;;;;;;5.83;3.00;;;27.20;96.90;;;;;;5047430;28;20238;-81
2021/07/30 12:25:07;;;;;;;5.40;2.63;;;27.20;96.60;;;;;;5048550;28;20336;-82
2021/07/30 12:27:36;;;;;;;4.20;2.47;;;27.30;97.60;;;;;;5066319;28;20245;-82
2021/07/30 12:30:07;;;;;;;5.57;2.60;;;27.20;97.70;;;;;;5067850;28;20238;-81
2021/07/30 12:32:40;;;;;;;4.47;2.50;;;27.10;96.70;;;;;;5048874;28;20257;-82
2021/07/30 12:35:11;;;;;;;6.33;3.00;;;27.00;96.50;;;;;;5046821;28;20268;-81
2021/07/30 12:38:02;;;;;;;7.93;2.90;;;27.00;97.40;;;;;;5048011;28;20239;-81
2021/07/30 12:40:30;;;;;;;5.73;2.90;;;26.90;96.60;;;;;;5047528;28;20255;-82
2021/07/30 12:43:12;;;;;;;6.27;2.90;;;26.80;96.70;;;;;;5067474;28;20242;-81
2021/07/30 12:45:43;;;;;;;5.80;2.60;;;26.60;96.00;;;;;;5067617;28;20239;-81
2021/07/30 12:48:17;;;;;;;5.43;2.80;;;26.60;96.10;;;;;;5068081;28;20700;-82
2021/07/30 12:50:46;;;;;;;5.67;2.70;;;26.50;96.50;;;;;;5067588;28;21247;-82
2021/07/30 12:53:17;;;;;;;5.00;3.00;;;26.50;96.20;;;;;;5067062;28;20230;-82
2021/07/30 12:56:03;;;;;;;7.47;2.97;;;26.40;97.20;;;;;;5064145;28;20262;-80
2021/07/30 12:58:33;;;;;;;4.33;2.73;;;26.40;96.10;;;;;;5047680;28;20738;-82